sensor_id;sensor_type;location;lat;lon;timestamp;pressure;altitude;pressure_sealevel;temperature;humidity
81372;BME280;70827;52.206;5.294;2023-12-04T00:00:14;101174.81;;;0.62;86.06
81372;BME280;70827;52.206;5.294;2023-12-04T00:02:40;101176.38;;;0.57;86.49
81372;BME280;70827;52.206;5.294;2023-12-04T00:05:07;101162.41;;;0.73;86.49
81372;BME280;70827;52.206;5.294;2023-12-04T00:07:33;101161.84;;;0.54;86.37
81372;BME280;70827;52.206;5.294;2023-12-04T00:09:58;101161.66;;;0.50;86.51
81372;BME280;70827;52.206;5.294;2023-12-04T00:12:24;101156.06;;;0.60;87.12
81372;BME280;70827;52.206;5.294;2023-12-04T00:14:49;101159.56;;;0.64;86.93
81372;BME280;70827;52.206;5.294;2023-12-04T00:17:21;101152.31;;;0.50;86.55
81372;BME280;70827;52.206;5.294;2023-12-04T00:19:46;101139.31;;;0.68;86.66
81372;BME280;70827;52.206;5.294;2023-12-04T00:22:12;101147.63;;;0.63;86.35
81372;BME280;70827;52.206;5.294;2023-12-04T00:24:41;101144.97;;;0.59;86.46
81372;BME280;70827;52.206;5.294;2023-12-04T00:27:06;101137.31;;;0.59;86.92
81372;BME280;70827;52.206;5.294;2023-12-04T00:29:32;101134.34;;;0.73;86.24
81372;BME280;70827;52.206;5.294;2023-12-04T00:31:57;101122.13;;;0.63;85.66
81372;BME280;70827;52.206;5.294;2023-12-04T00:34:26;101130.16;;;0.75;86.12
81372;BME280;70827;52.206;5.294;2023-12-04T00:36:51;101128.16;;;0.66;86.45
81372;BME280;70827;52.206;5.294;2023-12-04T00:39:17;101129.53;;;0.55;86.76
81372;BME280;70827;52.206;5.294;2023-12-04T00:41:42;101144.06;;;0.57;86.39
81372;BME280;70827;52.206;5.294;2023-12-04T00:44:08;101138.19;;;0.60;86.60
81372;BME280;70827;52.206;5.294;2023-12-04T00:46:34;101130.31;;;0.52;86.45
81372;BME280;70827;52.206;5.294;2023-12-04T00:48:59;101125.31;;;0.55;86.51
81372;BME280;70827;52.206;5.294;2023-12-04T00:51:27;101126.41;;;0.64;86.36
81372;BME280;70827;52.206;5.294;2023-12-04T00:53:53;101125.78;;;0.71;86.55
81372;BME280;70827;52.206;5.294;2023-12-04T00:56:19;101127.16;;;0.61;86.05
81372;BME280;70827;52.206;5.294;2023-12-04T00:58:44;101126.03;;;0.51;86.51
81372;BME280;70827;52.206;5.294;2023-12-04T01:01:10;101124.34;;;0.52;86.76
81372;BME280;70827;52.206;5.294;2023-12-04T01:03:35;101124.56;;;0.59;86.42
81372;BME280;70827;52.206;5.294;2023-12-04T01:06:03;101120.06;;;0.51;86.65
81372;BME280;70827;52.206;5.294;2023-12-04T01:08:31;101118.75;;;0.64;86.99
81372;BME280;70827;52.206;5.294;2023-12-04T01:10:57;101122.78;;;0.57;87.03
81372;BME280;70827;52.206;5.294;2023-12-04T01:13:22;101119.69;;;0.67;87.17
81372;BME280;70827;52.206;5.294;2023-12-04T01:15:48;101116.78;;;0.55;86.95
81372;BME280;70827;52.206;5.294;2023-12-04T01:18:13;101095.75;;;0.62;87.01
81372;BME280;70827;52.206;5.294;2023-12-04T01:20:39;101110.31;;;0.66;86.56
81372;BME280;70827;52.206;5.294;2023-12-04T01:23:05;101103.81;;;0.76;86.41
81372;BME280;70827;52.206;5.294;2023-12-04T01:25:33;101099.44;;;0.72;86.79
81372;BME280;70827;52.206;5.294;2023-12-04T01:27:59;101101.22;;;0.74;86.44
81372;BME280;70827;52.206;5.294;2023-12-04T01:30:24;101095.28;;;0.75;86.45
81372;BME280;70827;52.206;5.294;2023-12-04T01:32:50;101090.34;;;0.81;86.10
81372;BME280;70827;52.206;5.294;2023-12-04T01:35:16;101082.69;;;0.81;85.87
81372;BME280;70827;52.206;5.294;2023-12-04T01:37:43;101089.56;;;0.84;86.25
81372;BME280;70827;52.206;5.294;2023-12-04T01:40:10;101077.38;;;0.74;86.35
81372;BME280;70827;52.206;5.294;2023-12-04T01:42:38;101083.81;;;0.89;85.85
81372;BME280;70827;52.206;5.294;2023-12-04T01:45:05;101082.63;;;0.78;86.45
81372;BME280;70827;52.206;5.294;2023-12-04T01:47:30;101079.38;;;0.84;86.03
81372;BME280;70827;52.206;5.294;2023-12-04T01:49:56;101086.78;;;0.75;86.62
81372;BME280;70827;52.206;5.294;2023-12-04T01:52:22;101082.38;;;0.99;85.54
81372;BME280;70827;52.206;5.294;2023-12-04T01:54:47;101075.47;;;0.95;85.99
81372;BME280;70827;52.206;5.294;2023-12-04T01:57:13;101073.94;;;0.72;86.12
81372;BME280;70827;52.206;5.294;2023-12-04T01:59:41;101083.56;;;0.82;85.96
81372;BME280;70827;52.206;5.294;2023-12-04T02:02:07;101067.63;;;0.60;85.69
81372;BME280;70827;52.206;5.294;2023-12-04T02:04:33;101065.66;;;0.80;86.17
81372;BME280;70827;52.206;5.294;2023-12-04T02:06:59;101063.41;;;0.89;85.61
81372;BME280;70827;52.206;5.294;2023-12-04T02:09:24;101053.28;;;0.93;85.38
81372;BME280;70827;52.206;5.294;2023-12-04T02:11:50;101052.13;;;0.83;85.66
81372;BME280;70827;52.206;5.294;2023-12-04T02:14:16;101049.84;;;0.92;85.14
81372;BME280;70827;52.206;5.294;2023-12-04T02:16:44;101052.41;;;0.92;85.60
81372;BME280;70827;52.206;5.294;2023-12-04T02:19:11;101058.16;;;0.85;85.38
81372;BME280;70827;52.206;5.294;2023-12-04T02:21:37;101045.66;;;0.94;85.12
81372;BME280;70827;52.206;5.294;2023-12-04T02:24:05;101044.31;;;0.77;85.16
81372;BME280;70827;52.206;5.294;2023-12-04T02:26:32;101037.69;;;0.83;84.98
81372;BME280;70827;52.206;5.294;2023-12-04T02:29:02;101037.44;;;0.74;85.08
81372;BME280;70827;52.206;5.294;2023-12-04T02:31:30;101039.63;;;0.62;85.38
81372;BME280;70827;52.206;5.294;2023-12-04T02:33:56;101031.19;;;0.95;84.84
81372;BME280;70827;52.206;5.294;2023-12-04T02:36:22;101021.47;;;0.81;85.06
81372;BME280;70827;52.206;5.294;2023-12-04T02:38:49;101007.63;;;0.73;85.27
81372;BME280;70827;52.206;5.294;2023-12-04T02:41:20;101008.38;;;0.69;85.88
81372;BME280;70827;52.206;5.294;2023-12-04T02:43:46;101007.50;;;0.69;85.15
81372;BME280;70827;52.206;5.294;2023-12-04T02:46:12;101009.81;;;0.89;84.48
81372;BME280;70827;52.206;5.294;2023-12-04T02:48:41;101002.47;;;0.70;85.29
81372;BME280;70827;52.206;5.294;2023-12-04T02:51:07;100994.69;;;0.67;85.07
81372;BME280;70827;52.206;5.294;2023-12-04T02:53:32;100996.28;;;0.64;84.78
81372;BME280;70827;52.206;5.294;2023-12-04T02:55:58;100993.66;;;0.60;84.98
81372;BME280;70827;52.206;5.294;2023-12-04T02:58:26;100988.16;;;0.77;84.43
81372;BME280;70827;52.206;5.294;2023-12-04T03:00:52;100989.41;;;0.61;84.75
81372;BME280;70827;52.206;5.294;2023-12-04T03:03:18;100988.59;;;0.62;84.56
81372;BME280;70827;52.206;5.294;2023-12-04T03:05:43;100978.47;;;0.65;85.00
81372;BME280;70827;52.206;5.294;2023-12-04T03:08:09;100984.56;;;0.69;84.54
81372;BME280;70827;52.206;5.294;2023-12-04T03:10:34;100966.47;;;0.61;83.87
81372;BME280;70827;52.206;5.294;2023-12-04T03:13:00;100966.84;;;0.75;84.79
81372;BME280;70827;52.206;5.294;2023-12-04T03:15:28;100961.25;;;0.86;83.93
81372;BME280;70827;52.206;5.294;2023-12-04T03:17:54;100964.19;;;0.70;83.99
81372;BME280;70827;52.206;5.294;2023-12-04T03:20:20;100954.88;;;0.72;84.22
81372;BME280;70827;52.206;5.294;2023-12-04T03:22:45;100943.66;;;0.67;84.13
81372;BME280;70827;52.206;5.294;2023-12-04T03:25:11;100951.63;;;0.78;83.44
81372;BME280;70827;52.206;5.294;2023-12-04T03:27:36;100948.38;;;0.83;83.16
81372;BME280;70827;52.206;5.294;2023-12-04T03:30:03;100947.81;;;0.94;83.35
81372;BME280;70827;52.206;5.294;2023-12-04T03:32:31;100944.13;;;0.84;83.04
81372;BME280;70827;52.206;5.294;2023-12-04T03:34:57;100942.50;;;0.86;83.58
81372;BME280;70827;52.206;5.294;2023-12-04T03:37:23;100930.75;;;0.61;83.73
81372;BME280;70827;52.206;5.294;2023-12-04T03:39:50;100929.91;;;0.92;83.41
81372;BME280;70827;52.206;5.294;2023-12-04T03:42:16;100926.13;;;0.78;82.94
81372;BME280;70827;52.206;5.294;2023-12-04T03:44:41;100919.72;;;0.62;83.37
81372;BME280;70827;52.206;5.294;2023-12-04T03:47:07;100927.28;;;0.59;83.57
81372;BME280;70827;52.206;5.294;2023-12-04T03:49:35;100916.31;;;0.93;83.49
81372;BME280;70827;52.206;5.294;2023-12-04T03:52:01;100917.50;;;0.74;82.73
81372;BME280;70827;52.206;5.294;2023-12-04T03:54:26;100916.06;;;0.84;83.04
81372;BME280;70827;52.206;5.294;2023-12-04T03:56:52;100907.19;;;0.70;82.80
81372;BME280;70827;52.206;5.294;2023-12-04T03:59:18;100896.13;;;0.69;82.71
81372;BME280;70827;52.206;5.294;2023-12-04T04:01:43;100906.09;;;0.93;82.30
81372;BME280;70827;52.206;5.294;2023-12-04T04:04:09;100900.59;;;0.78;82.80
81372;BME280;70827;52.206;5.294;2023-12-04T04:06:37;100901.34;;;0.74;82.92
81372;BME280;70827;52.206;5.294;2023-12-04T04:09:03;100804.28;;;0.36;82.54
81372;BME280;70827;52.206;5.294;2023-12-04T04:11:28;100885.19;;;0.73;82.35
81372;BME280;70827;52.206;5.294;2023-12-04T04:13:54;100883.59;;;0.78;81.79
81372;BME280;70827;52.206;5.294;2023-12-04T04:16:20;100883.19;;;0.95;81.44
81372;BME280;70827;52.206;5.294;2023-12-04T04:18:45;100867.72;;;0.57;81.56
81372;BME280;70827;52.206;5.294;2023-12-04T04:21:11;100870.69;;;0.72;82.26
81372;BME280;70827;52.206;5.294;2023-12-04T04:23:39;100862.00;;;0.66;81.72
81372;BME280;70827;52.206;5.294;2023-12-04T04:26:05;100878.13;;;0.65;81.65
81372;BME280;70827;52.206;5.294;2023-12-04T04:28:31;100860.44;;;0.71;81.71
81372;BME280;70827;52.206;5.294;2023-12-04T04:30:56;100871.19;;;0.59;81.83
81372;BME280;70827;52.206;5.294;2023-12-04T04:33:22;100858.25;;;0.84;81.17
81372;BME280;70827;52.206;5.294;2023-12-04T04:35:47;100864.41;;;0.93;81.24
81372;BME280;70827;52.206;5.294;2023-12-04T04:38:13;100860.44;;;0.71;81.31
81372;BME280;70827;52.206;5.294;2023-12-04T04:40:41;100845.38;;;0.80;81.60
81372;BME280;70827;52.206;5.294;2023-12-04T04:43:07;100851.72;;;0.63;81.37
81372;BME280;70827;52.206;5.294;2023-12-04T04:45:32;100853.97;;;0.83;81.29
81372;BME280;70827;52.206;5.294;2023-12-04T04:47:58;100844.50;;;0.79;80.88
81372;BME280;70827;52.206;5.294;2023-12-04T04:50:24;100849.84;;;0.88;81.03
81372;BME280;70827;52.206;5.294;2023-12-04T04:52:49;100853.28;;;0.89;80.92
81372;BME280;70827;52.206;5.294;2023-12-04T04:55:15;100841.81;;;0.73;80.87
81372;BME280;70827;52.206;5.294;2023-12-04T04:57:43;100846.41;;;0.86;80.81
81372;BME280;70827;52.206;5.294;2023-12-04T05:00:10;100846.50;;;0.58;81.70
81372;BME280;70827;52.206;5.294;2023-12-04T05:02:35;100842.75;;;0.77;80.99
81372;BME280;70827;52.206;5.294;2023-12-04T05:05:02;100843.56;;;0.76;81.39
81372;BME280;70827;52.206;5.294;2023-12-04T05:07:28;100846.03;;;0.73;81.72
81372;BME280;70827;52.206;5.294;2023-12-04T05:09:54;100839.16;;;0.69;81.44
81372;BME280;70827;52.206;5.294;2023-12-04T05:12:20;100836.03;;;0.80;81.45
81372;BME280;70827;52.206;5.294;2023-12-04T05:14:48;100842.03;;;0.82;81.28
81372;BME280;70827;52.206;5.294;2023-12-04T05:17:13;100832.44;;;0.72;80.91
81372;BME280;70827;52.206;5.294;2023-12-04T05:19:39;100831.00;;;0.83;80.67
81372;BME280;70827;52.206;5.294;2023-12-04T05:22:05;100823.88;;;0.70;81.00
81372;BME280;70827;52.206;5.294;2023-12-04T05:24:30;100829.22;;;0.81;81.37
81372;BME280;70827;52.206;5.294;2023-12-04T05:26:56;100815.31;;;0.68;81.25
81372;BME280;70827;52.206;5.294;2023-12-04T05:29:21;100819.03;;;0.81;80.77
81372;BME280;70827;52.206;5.294;2023-12-04T05:31:50;100812.63;;;0.64;81.37
81372;BME280;70827;52.206;5.294;2023-12-04T05:34:15;100817.03;;;0.69;81.40
81372;BME280;70827;52.206;5.294;2023-12-04T05:36:41;100814.56;;;0.72;81.35
81372;BME280;70827;52.206;5.294;2023-12-04T05:39:06;100807.53;;;0.64;81.01
81372;BME280;70827;52.206;5.294;2023-12-04T05:41:32;100806.84;;;0.69;81.25
81372;BME280;70827;52.206;5.294;2023-12-04T05:43:58;100798.59;;;0.81;81.04
81372;BME280;70827;52.206;5.294;2023-12-04T05:46:23;100788.22;;;0.73;81.39
81372;BME280;70827;52.206;5.294;2023-12-04T05:48:51;100794.06;;;1.02;80.77
81372;BME280;70827;52.206;5.294;2023-12-04T05:51:17;100788.16;;;0.70;81.36
81372;BME280;70827;52.206;5.294;2023-12-04T05:53:43;100790.03;;;0.77;80.63
81372;BME280;70827;52.206;5.294;2023-12-04T05:56:09;100780.69;;;0.78;81.01
81372;BME280;70827;52.206;5.294;2023-12-04T05:58:35;100784.31;;;0.86;80.69
81372;BME280;70827;52.206;5.294;2023-12-04T06:01:01;100788.44;;;0.82;80.52
81372;BME280;70827;52.206;5.294;2023-12-04T06:03:26;100787.03;;;0.94;80.22
81372;BME280;70827;52.206;5.294;2023-12-04T06:05:54;100786.16;;;0.93;80.73
81372;BME280;70827;52.206;5.294;2023-12-04T06:08:20;100785.31;;;0.93;80.54
81372;BME280;70827;52.206;5.294;2023-12-04T06:10:46;100778.06;;;0.75;81.07
81372;BME280;70827;52.206;5.294;2023-12-04T06:13:11;100771.53;;;0.86;80.98
81372;BME280;70827;52.206;5.294;2023-12-04T06:15:37;100777.50;;;0.86;80.15
81372;BME280;70827;52.206;5.294;2023-12-04T06:18:03;100778.13;;;0.78;80.30
81372;BME280;70827;52.206;5.294;2023-12-04T06:20:28;100779.78;;;0.76;80.25
81372;BME280;70827;52.206;5.294;2023-12-04T06:22:57;100774.56;;;0.71;80.69
81372;BME280;70827;52.206;5.294;2023-12-04T06:25:24;100774.19;;;0.90;80.03
81372;BME280;70827;52.206;5.294;2023-12-04T06:27:50;100773.28;;;0.88;79.81
81372;BME280;70827;52.206;5.294;2023-12-04T06:30:17;100782.47;;;0.82;80.35
81372;BME280;70827;52.206;5.294;2023-12-04T06:32:43;100776.91;;;0.98;79.84
81372;BME280;70827;52.206;5.294;2023-12-04T06:35:11;100764.66;;;0.83;79.85
81372;BME280;70827;52.206;5.294;2023-12-04T06:37:37;100756.38;;;0.92;79.64
81372;BME280;70827;52.206;5.294;2023-12-04T06:40:07;100756.97;;;0.82;79.61
81372;BME280;70827;52.206;5.294;2023-12-04T06:42:33;100753.88;;;0.95;79.33
81372;BME280;70827;52.206;5.294;2023-12-04T06:44:59;100751.13;;;0.86;80.02
81372;BME280;70827;52.206;5.294;2023-12-04T06:47:25;100746.91;;;0.88;80.01
81372;BME280;70827;52.206;5.294;2023-12-04T06:49:51;100745.00;;;0.79;79.71
81372;BME280;70827;52.206;5.294;2023-12-04T06:52:16;100738.03;;;0.72;79.56
81372;BME280;70827;52.206;5.294;2023-12-04T06:54:42;100742.59;;;0.85;79.00
81372;BME280;70827;52.206;5.294;2023-12-04T06:57:10;100737.44;;;0.84;79.21
81372;BME280;70827;52.206;5.294;2023-12-04T06:59:36;100725.41;;;0.78;79.39
81372;BME280;70827;52.206;5.294;2023-12-04T07:02:01;100725.47;;;0.81;79.12
81372;BME280;70827;52.206;5.294;2023-12-04T07:04:27;100731.53;;;0.85;78.79
81372;BME280;70827;52.206;5.294;2023-12-04T07:06:53;100723.13;;;0.89;78.85
81372;BME280;70827;52.206;5.294;2023-12-04T07:09:18;100728.72;;;0.74;79.33
81372;BME280;70827;52.206;5.294;2023-12-04T07:11:44;100728.84;;;0.80;78.67
81372;BME280;70827;52.206;5.294;2023-12-04T07:14:12;100721.25;;;0.82;78.72
81372;BME280;70827;52.206;5.294;2023-12-04T07:16:41;100716.03;;;0.77;78.32
81372;BME280;70827;52.206;5.294;2023-12-04T07:19:07;100705.19;;;0.86;78.11
81372;BME280;70827;52.206;5.294;2023-12-04T07:21:32;100716.16;;;0.83;78.49
81372;BME280;70827;52.206;5.294;2023-12-04T07:23:58;100711.94;;;0.84;78.94
81372;BME280;70827;52.206;5.294;2023-12-04T07:26:23;100704.88;;;0.72;79.16
81372;BME280;70827;52.206;5.294;2023-12-04T07:28:49;100701.00;;;0.88;79.37
81372;BME280;70827;52.206;5.294;2023-12-04T07:31:17;100702.81;;;0.94;78.58
81372;BME280;70827;52.206;5.294;2023-12-04T07:33:43;100700.06;;;0.84;78.58
81372;BME280;70827;52.206;5.294;2023-12-04T07:36:09;100700.69;;;0.76;77.85
81372;BME280;70827;52.206;5.294;2023-12-04T07:38:34;100693.06;;;0.77;78.32
81372;BME280;70827;52.206;5.294;2023-12-04T07:41:00;100706.69;;;0.78;77.30
81372;BME280;70827;52.206;5.294;2023-12-04T07:43:26;100712.94;;;0.90;77.99
81372;BME280;70827;52.206;5.294;2023-12-04T07:45:51;100705.25;;;0.89;77.69
81372;BME280;70827;52.206;5.294;2023-12-04T07:48:19;100701.53;;;0.75;77.99
81372;BME280;70827;52.206;5.294;2023-12-04T07:50:45;100708.50;;;0.83;77.65
81372;BME280;70827;52.206;5.294;2023-12-04T07:53:11;100694.84;;;0.81;77.33
81372;BME280;70827;52.206;5.294;2023-12-04T07:55:36;100702.81;;;0.94;77.09
81372;BME280;70827;52.206;5.294;2023-12-04T07:58:02;100692.06;;;1.07;77.01
81372;BME280;70827;52.206;5.294;2023-12-04T08:00:27;100686.94;;;1.07;77.43
81372;BME280;70827;52.206;5.294;2023-12-04T08:02:53;100696.09;;;0.99;77.37
81372;BME280;70827;52.206;5.294;2023-12-04T08:05:21;100689.44;;;1.04;77.55
81372;BME280;70827;52.206;5.294;2023-12-04T08:07:47;100686.06;;;1.05;76.79
81372;BME280;70827;52.206;5.294;2023-12-04T08:10:12;100688.47;;;1.00;76.84
81372;BME280;70827;52.206;5.294;2023-12-04T08:12:38;100683.94;;;0.87;77.18
81372;BME280;70827;52.206;5.294;2023-12-04T08:15:05;100691.47;;;0.82;76.73
81372;BME280;70827;52.206;5.294;2023-12-04T08:17:31;100693.59;;;1.00;76.10
81372;BME280;70827;52.206;5.294;2023-12-04T08:19:56;100700.13;;;0.87;76.25
81372;BME280;70827;52.206;5.294;2023-12-04T08:22:25;100689.44;;;1.04;75.46
81372;BME280;70827;52.206;5.294;2023-12-04T08:24:50;100701.13;;;0.94;75.05
81372;BME280;70827;52.206;5.294;2023-12-04T08:27:16;100693.56;;;0.99;75.14
81372;BME280;70827;52.206;5.294;2023-12-04T08:29:41;100690.00;;;0.92;75.04
81372;BME280;70827;52.206;5.294;2023-12-04T08:32:07;100692.19;;;1.14;74.69
81372;BME280;70827;52.206;5.294;2023-12-04T08:34:33;100684.41;;;1.08;75.01
81372;BME280;70827;52.206;5.294;2023-12-04T08:36:58;100692.06;;;1.07;74.40
81372;BME280;70827;52.206;5.294;2023-12-04T08:39:26;100685.19;;;1.04;75.11
81372;BME280;70827;52.206;5.294;2023-12-04T08:41:52;100679.09;;;0.99;74.52
81372;BME280;70827;52.206;5.294;2023-12-04T08:44:18;100677.69;;;1.12;73.91
81372;BME280;70827;52.206;5.294;2023-12-04T08:46:44;100672.38;;;1.01;74.18
81372;BME280;70827;52.206;5.294;2023-12-04T08:49:09;100656.94;;;0.97;74.11
81372;BME280;70827;52.206;5.294;2023-12-04T08:51:35;100679.28;;;1.07;73.90
81372;BME280;70827;52.206;5.294;2023-12-04T08:54:01;100659.88;;;1.15;73.33
81372;BME280;70827;52.206;5.294;2023-12-04T08:56:29;100661.50;;;1.11;73.05
81372;BME280;70827;52.206;5.294;2023-12-04T08:58:55;100658.16;;;1.14;73.05
81372;BME280;70827;52.206;5.294;2023-12-04T09:01:20;100656.00;;;1.34;72.81
81372;BME280;70827;52.206;5.294;2023-12-04T09:03:46;100653.31;;;1.26;72.93
81372;BME280;70827;52.206;5.294;2023-12-04T09:06:12;100658.97;;;1.11;73.44
81372;BME280;70827;52.206;5.294;2023-12-04T09:08:37;100647.06;;;1.12;73.11
81372;BME280;70827;52.206;5.294;2023-12-04T09:11:04;100650.50;;;1.14;72.87
81372;BME280;70827;52.206;5.294;2023-12-04T09:13:32;100637.75;;;1.15;73.63
81372;BME280;70827;52.206;5.294;2023-12-04T09:15:57;100644.75;;;1.23;72.72
81372;BME280;70827;52.206;5.294;2023-12-04T09:18:23;100641.53;;;1.33;72.82
81372;BME280;70827;52.206;5.294;2023-12-04T09:20:49;100650.88;;;1.32;72.74
81372;BME280;70827;52.206;5.294;2023-12-04T09:23:14;100640.84;;;1.40;72.84
81372;BME280;70827;52.206;5.294;2023-12-04T09:25:40;100639.19;;;1.43;72.96
81372;BME280;70827;52.206;5.294;2023-12-04T09:28:06;100644.09;;;1.34;72.55
81372;BME280;70827;52.206;5.294;2023-12-04T09:30:35;100627.97;;;1.35;72.28
81372;BME280;70827;52.206;5.294;2023-12-04T09:33:01;100642.47;;;1.36;73.11
81372;BME280;70827;52.206;5.294;2023-12-04T09:35:27;100602.06;;;1.17;71.34
81372;BME280;70827;52.206;5.294;2023-12-04T09:37:52;100627.16;;;1.36;71.77
81372;BME280;70827;52.206;5.294;2023-12-04T09:40:18;100636.72;;;1.48;71.96
81372;BME280;70827;52.206;5.294;2023-12-04T09:42:44;100640.41;;;1.62;71.90
81372;BME280;70827;52.206;5.294;2023-12-04T09:45:10;100630.94;;;1.57;71.24
81372;BME280;70827;52.206;5.294;2023-12-04T09:47:39;100627.47;;;1.53;70.60
81372;BME280;70827;52.206;5.294;2023-12-04T09:50:06;100629.19;;;1.54;71.28
81372;BME280;70827;52.206;5.294;2023-12-04T09:52:33;100634.19;;;1.49;70.47
81372;BME280;70827;52.206;5.294;2023-12-04T09:54:59;100617.41;;;1.62;70.57
81372;BME280;70827;52.206;5.294;2023-12-04T09:57:25;100621.59;;;1.57;70.77
81372;BME280;70827;52.206;5.294;2023-12-04T09:59:51;100630.13;;;1.59;70.07
81372;BME280;70827;52.206;5.294;2023-12-04T10:02:17;100629.84;;;1.44;70.17
81372;BME280;70827;52.206;5.294;2023-12-04T10:04:45;100633.59;;;1.63;69.52
81372;BME280;70827;52.206;5.294;2023-12-04T10:07:11;100615.75;;;1.64;69.54
81372;BME280;70827;52.206;5.294;2023-12-04T10:09:37;100632.72;;;1.61;69.23
81372;BME280;70827;52.206;5.294;2023-12-04T10:12:03;100620.84;;;1.64;69.20
81372;BME280;70827;52.206;5.294;2023-12-04T10:14:31;100615.97;;;1.76;69.24
81372;BME280;70827;52.206;5.294;2023-12-04T10:16:56;100610.78;;;1.72;68.27
81372;BME280;70827;52.206;5.294;2023-12-04T10:19:23;100612.59;;;1.77;69.45
81372;BME280;70827;52.206;5.294;2023-12-04T10:21:52;100602.31;;;1.74;67.91
81372;BME280;70827;52.206;5.294;2023-12-04T10:24:27;100606.81;;;1.86;68.00
81372;BME280;70827;52.206;5.294;2023-12-04T10:26:53;100600.81;;;1.86;68.04
81372;BME280;70827;52.206;5.294;2023-12-04T10:29:19;100606.91;;;1.94;68.01
81372;BME280;70827;52.206;5.294;2023-12-04T10:31:45;100588.19;;;1.95;68.46
81372;BME280;70827;52.206;5.294;2023-12-04T10:34:10;100595.88;;;1.96;68.18
81372;BME280;70827;52.206;5.294;2023-12-04T10:36:36;100583.34;;;2.11;67.94
81372;BME280;70827;52.206;5.294;2023-12-04T10:39:04;100573.09;;;2.08;68.24
81372;BME280;70827;52.206;5.294;2023-12-04T10:41:30;100577.38;;;2.11;67.92
81372;BME280;70827;52.206;5.294;2023-12-04T10:43:56;100571.38;;;2.09;67.31
81372;BME280;70827;52.206;5.294;2023-12-04T10:46:22;100568.66;;;2.00;68.10
81372;BME280;70827;52.206;5.294;2023-12-04T10:48:49;100556.03;;;2.09;67.66
81372;BME280;70827;52.206;5.294;2023-12-04T10:51:15;100557.56;;;1.98;67.78
81372;BME280;70827;52.206;5.294;2023-12-04T10:53:41;100542.41;;;2.10;68.33
81372;BME280;70827;52.206;5.294;2023-12-04T10:56:10;100531.38;;;2.13;67.25
81372;BME280;70827;52.206;5.294;2023-12-04T10:58:40;100535.56;;;2.07;67.12
81372;BME280;70827;52.206;5.294;2023-12-04T11:01:06;100524.56;;;2.13;67.13
81372;BME280;70827;52.206;5.294;2023-12-04T11:03:36;100528.97;;;2.22;67.96
81372;BME280;70827;52.206;5.294;2023-12-04T11:06:03;100523.88;;;2.22;68.07
81372;BME280;70827;52.206;5.294;2023-12-04T11:08:33;100530.41;;;2.03;67.19
81372;BME280;70827;52.206;5.294;2023-12-04T11:11:02;100521.94;;;2.08;67.19
81372;BME280;70827;52.206;5.294;2023-12-04T11:13:32;100516.06;;;2.16;67.36
81372;BME280;70827;52.206;5.294;2023-12-04T11:16:00;100506.66;;;2.11;66.87
81372;BME280;70827;52.206;5.294;2023-12-04T11:18:26;100511.06;;;2.22;68.00
81372;BME280;70827;52.206;5.294;2023-12-04T11:20:55;100503.22;;;2.09;67.10
81372;BME280;70827;52.206;5.294;2023-12-04T11:23:22;100498.09;;;2.08;67.09
81372;BME280;70827;52.206;5.294;2023-12-04T11:25:47;100486.97;;;2.06;65.95
81372;BME280;70827;52.206;5.294;2023-12-04T11:28:13;100488.69;;;2.07;66.50
81372;BME280;70827;52.206;5.294;2023-12-04T11:30:43;100482.00;;;2.17;66.45
81372;BME280;70827;52.206;5.294;2023-12-04T11:33:09;100483.78;;;2.21;67.35
81372;BME280;70827;52.206;5.294;2023-12-04T11:35:35;100470.91;;;2.16;65.50
81372;BME280;70827;52.206;5.294;2023-12-04T11:38:00;100480.41;;;2.23;66.92
81372;BME280;70827;52.206;5.294;2023-12-04T11:40:26;100477.94;;;2.29;67.04
81372;BME280;70827;52.206;5.294;2023-12-04T11:42:52;100479.69;;;2.33;67.94
81372;BME280;70827;52.206;5.294;2023-12-04T11:45:21;100479.56;;;2.23;67.27
81372;BME280;70827;52.206;5.294;2023-12-04T11:47:54;100471.09;;;2.28;66.72
81372;BME280;70827;52.206;5.294;2023-12-04T11:50:20;100465.75;;;2.13;68.07
81372;BME280;70827;52.206;5.294;2023-12-04T11:52:46;100465.97;;;2.28;67.16
81372;BME280;70827;52.206;5.294;2023-12-04T11:55:12;100466.75;;;2.23;67.33
81372;BME280;70827;52.206;5.294;2023-12-04T11:57:40;100457.28;;;2.16;67.02
81372;BME280;70827;52.206;5.294;2023-12-04T12:00:11;100460.78;;;2.22;67.19
81372;BME280;70827;52.206;5.294;2023-12-04T12:02:38;100455.59;;;2.18;68.09
81372;BME280;70827;52.206;5.294;2023-12-04T12:05:06;100453.09;;;2.21;68.34
81372;BME280;70827;52.206;5.294;2023-12-04T12:07:32;100448.75;;;2.15;68.26
81372;BME280;70827;52.206;5.294;2023-12-04T12:09:58;100452.16;;;2.17;67.86
81372;BME280;70827;52.206;5.294;2023-12-04T12:12:25;100446.31;;;2.23;68.23
81372;BME280;70827;52.206;5.294;2023-12-04T12:14:51;100435.13;;;2.16;68.50
81372;BME280;70827;52.206;5.294;2023-12-04T12:17:16;100435.06;;;2.11;68.46
81372;BME280;70827;52.206;5.294;2023-12-04T12:19:42;100441.22;;;2.26;68.74
81372;BME280;70827;52.206;5.294;2023-12-04T12:22:11;100430.13;;;2.25;67.71
81372;BME280;70827;52.206;5.294;2023-12-04T12:24:36;100445.66;;;2.37;68.29
81372;BME280;70827;52.206;5.294;2023-12-04T12:27:02;100441.19;;;2.21;67.93
81372;BME280;70827;52.206;5.294;2023-12-04T12:29:28;100426.75;;;2.28;68.05
81372;BME280;70827;52.206;5.294;2023-12-04T12:31:54;100432.75;;;2.30;68.75
81372;BME280;70827;52.206;5.294;2023-12-04T12:34:20;100426.75;;;2.26;68.42
81372;BME280;70827;52.206;5.294;2023-12-04T12:36:45;100421.66;;;2.28;68.07
81372;BME280;70827;52.206;5.294;2023-12-04T12:39:14;100424.19;;;2.28;67.94
81372;BME280;70827;52.206;5.294;2023-12-04T12:41:39;100422.53;;;2.31;68.72
81372;BME280;70827;52.206;5.294;2023-12-04T12:44:05;100418.28;;;2.33;68.48
81372;BME280;70827;52.206;5.294;2023-12-04T12:46:31;100419.16;;;2.34;67.96
81372;BME280;70827;52.206;5.294;2023-12-04T12:48:56;100407.13;;;2.27;68.60
81372;BME280;70827;52.206;5.294;2023-12-04T12:51:23;100394.41;;;2.31;68.86
81372;BME280;70827;52.206;5.294;2023-12-04T12:53:48;100388.50;;;2.35;69.60